sensor_id;sensor_type;location;lat;lon;timestamp;pressure;altitude;pressure_sealevel;temperature;humidity
3254;BME280;1639;42.804;23.342;2023-05-25T00:00:13;72597.97;;;-148.52;76.08
3254;BME280;1639;42.804;23.342;2023-05-25T00:02:40;72616.56;;;-148.52;75.12
3254;BME280;1639;42.804;23.342;2023-05-25T00:05:07;72624.84;;;-148.52;75.84
3254;BME280;1639;42.804;23.342;2023-05-25T00:07:33;72626.91;;;-148.52;76.38
3254;BME280;1639;42.804;23.342;2023-05-25T00:09:59;72637.25;;;-148.52;76.84
3254;BME280;1639;42.804;23.342;2023-05-25T00:12:24;72645.53;;;-148.52;76.81
3254;BME280;1639;42.804;23.342;2023-05-25T00:14:50;72643.44;;;-148.52;77.88
3254;BME280;1639;42.804;23.342;2023-05-25T00:17:15;72635.19;;;-148.52;78.26
3254;BME280;1639;42.804;23.342;2023-05-25T00:19:43;72624.84;;;-148.52;77.89
3254;BME280;1639;42.804;23.342;2023-05-25T00:22:09;72628.97;;;-148.52;77.59
3254;BME280;1639;42.804;23.342;2023-05-25T00:24:35;72628.97;;;-148.52;76.95
3254;BME280;1639;42.804;23.342;2023-05-25T00:27:01;72643.44;;;-148.52;76.15
3254;BME280;1639;42.804;23.342;2023-05-25T00:29:27;72653.78;;;-148.52;76.44
3254;BME280;1639;42.804;23.342;2023-05-25T00:31:53;72655.84;;;-148.52;76.51
3254;BME280;1639;42.804;23.342;2023-05-25T00:34:18;72655.84;;;-148.52;77.13
3254;BME280;1639;42.804;23.342;2023-05-25T00:36:44;72653.78;;;-148.52;77.59
3254;BME280;1639;42.804;23.342;2023-05-25T00:39:13;72655.84;;;-148.52;76.73
3254;BME280;1639;42.804;23.342;2023-05-25T00:41:41;72668.28;;;-148.52;76.58
3254;BME280;1639;42.804;23.342;2023-05-25T00:44:08;72680.69;;;-148.52;78.24
3254;BME280;1639;42.804;23.342;2023-05-25T00:46:34;72686.88;;;-148.52;79.24
3254;BME280;1639;42.804;23.342;2023-05-25T00:49:00;72699.28;;;-148.52;80.66
3254;BME280;1639;42.804;23.342;2023-05-25T00:51:28;72719.97;;;-148.52;82.30
3254;BME280;1639;42.804;23.342;2023-05-25T00:53:57;72732.38;;;-148.52;100.00
3254;BME280;1639;42.804;23.342;2023-05-25T00:56:29;72734.44;;;-148.52;100.00
3254;BME280;1639;42.804;23.342;2023-05-25T00:58:59;72740.66;;;-148.52;100.00
3254;BME280;1639;42.804;23.342;2023-05-25T01:01:30;72748.91;;;-148.52;100.00
3254;BME280;1639;42.804;23.342;2023-05-25T01:03:58;72748.91;;;-148.52;100.00
3254;BME280;1639;42.804;23.342;2023-05-25T01:06:29;72763.41;;;-148.52;100.00
3254;BME280;1639;42.804;23.342;2023-05-25T01:08:58;72769.59;;;-148.52;100.00
3254;BME280;1639;42.804;23.342;2023-05-25T01:11:31;72759.25;;;-148.52;100.00
3254;BME280;1639;42.804;23.342;2023-05-25T01:13:57;72744.78;;;-148.52;100.00
3254;BME280;1639;42.804;23.342;2023-05-25T01:16:24;72742.72;;;-148.52;100.00
3254;BME280;1639;42.804;23.342;2023-05-25T01:18:53;72730.31;;;-148.52;100.00
3254;BME280;1639;42.804;23.342;2023-05-25T01:21:25;72736.50;;;-148.52;100.00
3254;BME280;1639;42.804;23.342;2023-05-25T01:24:02;72738.59;;;-148.52;100.00
3254;BME280;1639;42.804;23.342;2023-05-25T01:26:34;72732.38;;;-148.52;100.00
3254;BME280;1639;42.804;23.342;2023-05-25T01:29:03;72732.38;;;-148.52;100.00
3254;BME280;1639;42.804;23.342;2023-05-25T01:31:29;72728.25;;;-148.52;100.00
3254;BME280;1639;42.804;23.342;2023-05-25T01:33:56;72715.84;;;-148.52;100.00
3254;BME280;1639;42.804;23.342;2023-05-25T01:36:22;72711.69;;;-148.52;100.00
3254;BME280;1639;42.804;23.342;2023-05-25T01:38:48;72715.84;;;-148.52;100.00
3254;BME280;1639;42.804;23.342;2023-05-25T01:41:13;72715.84;;;-148.52;100.00
3254;BME280;1639;42.804;23.342;2023-05-25T01:43:39;72730.31;;;-148.52;100.00
3254;BME280;1639;42.804;23.342;2023-05-25T01:46:14;72740.66;;;-148.52;100.00
3254;BME280;1639;42.804;23.342;2023-05-25T01:51:20;72779.94;;;-148.52;100.00
3254;BME280;1639;42.804;23.342;2023-05-25T01:53:55;72794.41;;;-148.52;100.00
3254;BME280;1639;42.804;23.342;2023-05-25T01:56:23;72810.97;;;-148.52;100.00
3254;BME280;1639;42.804;23.342;2023-05-25T01:58:52;72827.50;;;-148.52;100.00
3254;BME280;1639;42.804;23.342;2023-05-25T02:01:18;72842.00;;;-148.52;100.00
3254;BME280;1639;42.804;23.342;2023-05-25T02:03:46;72844.06;;;-148.52;100.00
3254;BME280;1639;42.804;23.342;2023-05-25T02:06:14;72848.19;;;-148.52;100.00
3254;BME280;1639;42.804;23.342;2023-05-25T02:08:40;72848.19;;;-148.52;100.00
3254;BME280;1639;42.804;23.342;2023-05-25T02:11:05;72854.41;;;-148.52;100.00
3254;BME280;1639;42.804;23.342;2023-05-25T02:13:30;72858.53;;;-148.52;100.00
3254;BME280;1639;42.804;23.342;2023-05-25T02:15:56;72866.81;;;-148.52;100.00
3254;BME280;1639;42.804;23.342;2023-05-25T02:18:21;72870.94;;;-148.52;100.00
3254;BME280;1639;42.804;23.342;2023-05-25T02:20:47;72879.22;;;-148.52;100.00
3254;BME280;1639;42.804;23.342;2023-05-25T02:23:13;72891.63;;;-148.52;100.00
3254;BME280;1639;42.804;23.342;2023-05-25T02:25:38;72885.41;;;-148.52;100.00
3254;BME280;1639;42.804;23.342;2023-05-25T02:28:04;72881.28;;;-148.52;100.00
3254;BME280;1639;42.804;23.342;2023-05-25T02:30:29;72879.22;;;-148.52;100.00
3254;BME280;1639;42.804;23.342;2023-05-25T02:32:55;72866.81;;;-148.52;100.00
3254;BME280;1639;42.804;23.342;2023-05-25T02:35:21;72858.53;;;-148.52;100.00
3254;BME280;1639;42.804;23.342;2023-05-25T02:37:46;72856.47;;;-148.52;100.00
3254;BME280;1639;42.804;23.342;2023-05-25T02:40:12;72862.66;;;-148.52;100.00
3254;BME280;1639;42.804;23.342;2023-05-25T02:42:38;72866.81;;;-148.52;100.00
3254;BME280;1639;42.804;23.342;2023-05-25T02:45:05;72875.06;;;-148.52;100.00
3254;BME280;1639;42.804;23.342;2023-05-25T02:47:34;72889.56;;;-148.52;100.00
3254;BME280;1639;42.804;23.342;2023-05-25T02:50:00;72895.75;;;-148.52;100.00
3254;BME280;1639;42.804;23.342;2023-05-25T02:52:25;72885.41;;;-148.52;100.00
3254;BME280;1639;42.804;23.342;2023-05-25T02:54:51;72908.16;;;-148.52;100.00
3254;BME280;1639;42.804;23.342;2023-05-25T02:57:16;72893.69;;;-148.52;100.00
3254;BME280;1639;42.804;23.342;2023-05-25T02:59:41;72889.56;;;-148.52;100.00
3254;BME280;1639;42.804;23.342;2023-05-25T03:02:07;72887.50;;;-148.52;100.00
3254;BME280;1639;42.804;23.342;2023-05-25T03:04:32;72881.28;;;-148.52;100.00
3254;BME280;1639;42.804;23.342;2023-05-25T03:07:01;72875.06;;;-148.52;100.00
3254;BME280;1639;42.804;23.342;2023-05-25T03:09:27;72885.41;;;-148.52;100.00
3254;BME280;1639;42.804;23.342;2023-05-25T03:11:52;72870.94;;;-148.52;100.00
3254;BME280;1639;42.804;23.342;2023-05-25T03:14:17;72866.81;;;-148.52;100.00
3254;BME280;1639;42.804;23.342;2023-05-25T03:16:43;72868.88;;;-148.52;100.00
3254;BME280;1639;42.804;23.342;2023-05-25T03:19:08;72856.47;;;-148.52;100.00
3254;BME280;1639;42.804;23.342;2023-05-25T03:21:34;72860.59;;;-148.52;100.00
3254;BME280;1639;42.804;23.342;2023-05-25T03:24:00;72848.19;;;-148.52;100.00
3254;BME280;1639;42.804;23.342;2023-05-25T03:26:25;72842.00;;;-148.52;100.00
3254;BME280;1639;42.804;23.342;2023-05-25T03:28:51;72848.19;;;-148.52;100.00
3254;BME280;1639;42.804;23.342;2023-05-25T03:31:17;72848.19;;;-148.52;100.00
3254;BME280;1639;42.804;23.342;2023-05-25T03:33:42;72860.59;;;-148.52;100.00
3254;BME280;1639;42.804;23.342;2023-05-25T03:36:08;72868.88;;;-148.52;100.00
3254;BME280;1639;42.804;23.342;2023-05-25T03:38:35;72887.50;;;-148.52;100.00
3254;BME280;1639;42.804;23.342;2023-05-25T03:41:01;72891.63;;;-148.52;100.00
3254;BME280;1639;42.804;23.342;2023-05-25T03:43:26;72895.75;;;-148.52;100.00
3254;BME280;1639;42.804;23.342;2023-05-25T03:45:51;72881.28;;;-148.52;100.00
3254;BME280;1639;42.804;23.342;2023-05-25T03:48:17;72875.06;;;-148.52;100.00
3254;BME280;1639;42.804;23.342;2023-05-25T03:50:42;72868.88;;;-148.52;100.00
3254;BME280;1639;42.804;23.342;2023-05-25T03:53:07;72864.75;;;-148.52;100.00
3254;BME280;1639;42.804;23.342;2023-05-25T03:55:33;72856.47;;;-148.52;100.00
3254;BME280;1639;42.804;23.342;2023-05-25T03:57:59;72856.47;;;-148.52;100.00
3254;BME280;1639;42.804;23.342;2023-05-25T04:00:24;72854.41;;;-148.52;100.00
3254;BME280;1639;42.804;23.342;2023-05-25T04:02:49;72844.06;;;-148.52;100.00
3254;BME280;1639;42.804;23.342;2023-05-25T04:05:15;72827.50;;;-148.52;100.00
3254;BME280;1639;42.804;23.342;2023-05-25T04:07:40;72823.38;;;-148.52;100.00
3254;BME280;1639;42.804;23.342;2023-05-25T04:10:06;72806.81;;;-148.52;100.00
3254;BME280;1639;42.804;23.342;2023-05-25T04:12:32;72792.34;;;-148.52;100.00
3254;BME280;1639;42.804;23.342;2023-05-25T04:14:57;72777.88;;;-148.52;100.00
3254;BME280;1639;42.804;23.342;2023-05-25T04:17:23;72767.53;;;-148.52;100.00
3254;BME280;1639;42.804;23.342;2023-05-25T04:19:50;72759.25;;;-148.52;100.00
3254;BME280;1639;42.804;23.342;2023-05-25T04:22:16;72753.06;;;-148.52;100.00
3254;BME280;1639;42.804;23.342;2023-05-25T04:24:41;72792.34;;;-148.52;100.00
3254;BME280;1639;42.804;23.342;2023-05-25T04:27:07;72777.88;;;-148.52;100.00
3254;BME280;1639;42.804;23.342;2023-05-25T04:29:32;72804.75;;;-148.52;100.00
3254;BME280;1639;42.804;23.342;2023-05-25T04:31:57;72782.00;;;-148.52;100.00
3254;BME280;1639;42.804;23.342;2023-05-25T04:34:23;72746.84;;;-148.52;100.00
3254;BME280;1639;42.804;23.342;2023-05-25T04:36:48;72726.19;;;-148.52;100.00
3254;BME280;1639;42.804;23.342;2023-05-25T04:39:14;72711.69;;;-148.52;100.00
3254;BME280;1639;42.804;23.342;2023-05-25T04:41:40;72730.31;;;-148.52;100.00
3254;BME280;1639;42.804;23.342;2023-05-25T04:44:07;72728.25;;;-148.52;99.17
3254;BME280;1639;42.804;23.342;2023-05-25T04:46:32;72699.28;;;-148.52;98.81
3254;BME280;1639;42.804;23.342;2023-05-25T04:49:02;72686.88;;;-148.52;98.77
3254;BME280;1639;42.804;23.342;2023-05-25T04:51:28;72674.47;;;-148.52;96.49
3254;BME280;1639;42.804;23.342;2023-05-25T04:53:54;72670.34;;;-148.52;94.04
3254;BME280;1639;42.804;23.342;2023-05-25T04:56:19;72668.28;;;-148.52;89.38
3254;BME280;1639;42.804;23.342;2023-05-25T04:58:46;72657.94;;;-148.52;90.27
3254;BME280;1639;42.804;23.342;2023-05-25T05:01:11;72668.28;;;-148.52;88.50
3254;BME280;1639;42.804;23.342;2023-05-25T05:03:37;72668.28;;;-148.52;90.34
3254;BME280;1639;42.804;23.342;2023-05-25T05:06:02;72653.78;;;-148.52;92.19
3254;BME280;1639;42.804;23.342;2023-05-25T05:08:28;72668.28;;;-148.52;90.62
3254;BME280;1639;42.804;23.342;2023-05-25T05:10:53;72678.59;;;-148.52;92.02
3254;BME280;1639;42.804;23.342;2023-05-25T05:13:18;72676.53;;;-148.52;95.38
3254;BME280;1639;42.804;23.342;2023-05-25T05:15:44;72660.00;;;-148.52;97.52
3254;BME280;1639;42.804;23.342;2023-05-25T05:18:09;72657.94;;;-148.52;96.52
3254;BME280;1639;42.804;23.342;2023-05-25T05:20:34;72653.78;;;-148.52;95.58
3254;BME280;1639;42.804;23.342;2023-05-25T05:23:00;72674.47;;;-148.52;98.02
3254;BME280;1639;42.804;23.342;2023-05-25T05:25:25;72678.59;;;-148.52;100.00
3254;BME280;1639;42.804;23.342;2023-05-25T05:27:51;72676.53;;;-148.52;100.00
3254;BME280;1639;42.804;23.342;2023-05-25T05:30:17;72657.94;;;-148.52;100.00
3254;BME280;1639;42.804;23.342;2023-05-25T05:32:42;72647.59;;;-148.52;100.00
3254;BME280;1639;42.804;23.342;2023-05-25T05:35:08;72624.84;;;-148.52;100.00
3254;BME280;1639;42.804;23.342;2023-05-25T05:37:33;72597.97;;;-148.52;96.65
3254;BME280;1639;42.804;23.342;2023-05-25T05:39:59;72562.81;;;-148.52;92.34
3254;BME280;1639;42.804;23.342;2023-05-25T05:42:24;72535.91;;;-148.52;90.12
3254;BME280;1639;42.804;23.342;2023-05-25T05:44:49;72529.72;;;-148.52;91.94
3254;BME280;1639;42.804;23.342;2023-05-25T05:47:15;72509.03;;;-148.52;88.16
3254;BME280;1639;42.804;23.342;2023-05-25T05:49:40;72488.34;;;-148.52;88.79
3254;BME280;1639;42.804;23.342;2023-05-25T05:52:07;72467.66;;;-148.52;83.91
3254;BME280;1639;42.804;23.342;2023-05-25T05:54:33;72451.13;;;-148.52;83.40
3254;BME280;1639;42.804;23.342;2023-05-25T05:56:58;72426.31;;;-148.52;82.60
3254;BME280;1639;42.804;23.342;2023-05-25T05:59:24;72415.97;;;-148.52;81.32
3254;BME280;1639;42.804;23.342;2023-05-25T06:01:49;72418.03;;;-148.52;81.75
3254;BME280;1639;42.804;23.342;2023-05-25T06:04:15;72426.31;;;-148.52;84.51
3254;BME280;1639;42.804;23.342;2023-05-25T06:06:40;72413.91;;;-148.52;82.51
3254;BME280;1639;42.804;23.342;2023-05-25T06:09:07;72384.97;;;-148.52;81.07
3254;BME280;1639;42.804;23.342;2023-05-25T06:11:34;72376.69;;;-148.52;78.80
3254;BME280;1639;42.804;23.342;2023-05-25T06:14:00;72343.59;;;-148.52;75.35
3254;BME280;1639;42.804;23.342;2023-05-25T06:16:26;72312.59;;;-148.52;77.16
3254;BME280;1639;42.804;23.342;2023-05-25T06:18:51;72296.03;;;-148.52;75.30
3254;BME280;1639;42.804;23.342;2023-05-25T06:21:17;72256.75;;;-148.52;73.86
3254;BME280;1639;42.804;23.342;2023-05-25T06:23:42;72256.75;;;-148.52;70.46
3254;BME280;1639;42.804;23.342;2023-05-25T06:26:08;72281.56;;;-148.52;69.25
3254;BME280;1639;42.804;23.342;2023-05-25T06:28:33;72260.88;;;-148.52;69.56
3254;BME280;1639;42.804;23.342;2023-05-25T06:30:58;72246.41;;;-148.52;69.56
3254;BME280;1639;42.804;23.342;2023-05-25T06:33:24;72240.22;;;-148.52;70.32
3254;BME280;1639;42.804;23.342;2023-05-25T06:35:50;72236.06;;;-148.52;67.77
3254;BME280;1639;42.804;23.342;2023-05-25T06:38:16;72215.38;;;-148.52;67.55
3254;BME280;1639;42.804;23.342;2023-05-25T06:40:42;72190.56;;;-148.52;67.82
3254;BME280;1639;42.804;23.342;2023-05-25T06:43:07;72186.44;;;-148.52;66.71
3254;BME280;1639;42.804;23.342;2023-05-25T06:45:32;72153.34;;;-148.52;69.33
3254;BME280;1639;42.804;23.342;2023-05-25T06:47:58;72107.88;;;-148.52;68.06
3254;BME280;1639;42.804;23.342;2023-05-25T06:50:23;72081.00;;;-148.52;65.37
3254;BME280;1639;42.804;23.342;2023-05-25T06:52:49;72037.56;;;-148.52;64.89
3254;BME280;1639;42.804;23.342;2023-05-25T06:55:15;72000.34;;;-148.52;62.30
3254;BME280;1639;42.804;23.342;2023-05-25T06:57:40;71977.59;;;-148.52;61.75
3254;BME280;1639;42.804;23.342;2023-05-25T07:00:08;71967.25;;;-148.52;60.79
3254;BME280;1639;42.804;23.342;2023-05-25T07:02:36;71977.59;;;-148.52;60.93
3254;BME280;1639;42.804;23.342;2023-05-25T07:05:02;71971.41;;;-148.52;63.46
3254;BME280;1639;42.804;23.342;2023-05-25T07:07:30;71942.44;;;-148.52;62.33
3254;BME280;1639;42.804;23.342;2023-05-25T07:09:55;71903.16;;;-148.52;61.25
3254;BME280;1639;42.804;23.342;2023-05-25T07:12:21;71849.41;;;-148.52;60.86
3254;BME280;1639;42.804;23.342;2023-05-25T07:14:46;71828.72;;;-148.52;59.74
3254;BME280;1639;42.804;23.342;2023-05-25T07:17:13;71822.53;;;-148.52;59.08
3254;BME280;1639;42.804;23.342;2023-05-25T07:19:38;71826.66;;;-148.52;59.17
3254;BME280;1639;42.804;23.342;2023-05-25T07:22:06;71853.53;;;-148.52;58.52
3254;BME280;1639;42.804;23.342;2023-05-25T07:24:31;71876.28;;;-148.52;60.53
3254;BME280;1639;42.804;23.342;2023-05-25T07:26:57;71880.41;;;-148.52;58.35
3254;BME280;1639;42.804;23.342;2023-05-25T07:29:22;71894.91;;;-148.52;58.16
3254;BME280;1639;42.804;23.342;2023-05-25T07:31:48;71954.84;;;-148.52;61.15
3254;BME280;1639;42.804;23.342;2023-05-25T07:34:13;72027.22;;;-148.52;62.90
3254;BME280;1639;42.804;23.342;2023-05-25T07:36:39;72058.25;;;-148.52;63.63
3254;BME280;1639;42.804;23.342;2023-05-25T07:39:05;72116.13;;;-148.52;65.96
3254;BME280;1639;42.804;23.342;2023-05-25T07:41:30;72140.94;;;-148.52;66.90
3254;BME280;1639;42.804;23.342;2023-05-25T07:43:56;72132.69;;;-148.52;65.58
3254;BME280;1639;42.804;23.342;2023-05-25T07:46:21;72149.22;;;-148.52;65.10
3254;BME280;1639;42.804;23.342;2023-05-25T07:48:49;72169.91;;;-148.52;66.14
3254;BME280;1639;42.804;23.342;2023-05-25T07:51:15;72178.16;;;-148.52;67.61
3254;BME280;1639;42.804;23.342;2023-05-25T07:53:40;72203.00;;;-148.52;67.69
3254;BME280;1639;42.804;23.342;2023-05-25T07:56:07;72211.25;;;-148.52;68.47
3254;BME280;1639;42.804;23.342;2023-05-25T07:58:32;72289.84;;;-148.52;70.64
3254;BME280;1639;42.804;23.342;2023-05-25T08:00:58;72339.47;;;-148.52;75.17
3254;BME280;1639;42.804;23.342;2023-05-25T08:03:23;72368.41;;;-148.52;77.75
3254;BME280;1639;42.804;23.342;2023-05-25T08:05:49;72587.63;;;-148.52;84.94
3254;BME280;1639;42.804;23.342;2023-05-25T08:08:15;72608.28;;;-148.52;85.15
3254;BME280;1639;42.804;23.342;2023-05-25T08:10:40;72653.78;;;-148.52;92.12
3254;BME280;1639;42.804;23.342;2023-05-25T08:13:06;72703.44;;;-148.52;93.94
3254;BME280;1639;42.804;23.342;2023-05-25T08:15:31;72709.63;;;-148.52;98.82
3254;BME280;1639;42.804;23.342;2023-05-25T08:17:56;72742.72;;;-148.52;100.00
3254;BME280;1639;42.804;23.342;2023-05-25T08:20:22;72703.44;;;-148.52;100.00
3254;BME280;1639;42.804;23.342;2023-05-25T08:22:49;72682.75;;;-148.52;100.00
3254;BME280;1639;42.804;23.342;2023-05-25T08:25:18;72705.50;;;-148.52;100.00
3254;BME280;1639;42.804;23.342;2023-05-25T08:27:43;72707.56;;;-148.52;100.00
3254;BME280;1639;42.804;23.342;2023-05-25T08:30:09;72697.22;;;-148.52;100.00
3254;BME280;1639;42.804;23.342;2023-05-25T08:32:35;72693.09;;;-148.52;100.00
3254;BME280;1639;42.804;23.342;2023-05-25T08:35:00;72715.84;;;-148.52;100.00
3254;BME280;1639;42.804;23.342;2023-05-25T08:37:30;72724.09;;;-148.52;100.00
3254;BME280;1639;42.804;23.342;2023-05-25T08:39:56;72736.50;;;-148.52;100.00
3254;BME280;1639;42.804;23.342;2023-05-25T08:42:21;72730.31;;;-148.52;100.00
3254;BME280;1639;42.804;23.342;2023-05-25T08:44:48;72736.50;;;-148.52;100.00
3254;BME280;1639;42.804;23.342;2023-05-25T08:47:15;72730.31;;;-148.52;100.00
3254;BME280;1639;42.804;23.342;2023-05-25T08:49:43;72726.19;;;-148.52;100.00
3254;BME280;1639;42.804;23.342;2023-05-25T08:52:12;72726.19;;;-148.52;100.00
3254;BME280;1639;42.804;23.342;2023-05-25T08:54:41;72738.59;;;-148.52;100.00
3254;BME280;1639;42.804;23.342;2023-05-25T09:00:06;72748.91;;;-148.52;100.00
3254;BME280;1639;42.804;23.342;2023-05-25T09:02:56;72755.13;;;-148.52;100.00
3254;BME280;1639;42.804;23.342;2023-05-25T09:05:25;72751.00;;;-148.52;100.00
3254;BME280;1639;42.804;23.342;2023-05-25T09:07:51;72748.91;;;-148.52;100.00
3254;BME280;1639;42.804;23.342;2023-05-25T09:10:19;72753.06;;;-148.52;100.00
3254;BME280;1639;42.804;23.342;2023-05-25T09:12:45;72755.13;;;-148.52;100.00
3254;BME280;1639;42.804;23.342;2023-05-25T09:15:12;72751.00;;;-148.52;100.00
3254;BME280;1639;42.804;23.342;2023-05-25T09:17:38;72753.06;;;-148.52;100.00
3254;BME280;1639;42.804;23.342;2023-05-25T09:20:04;72761.34;;;-148.52;100.00
3254;BME280;1639;42.804;23.342;2023-05-25T09:22:30;72755.13;;;-148.52;100.00
3254;BME280;1639;42.804;23.342;2023-05-25T09:24:55;72744.78;;;-148.52;100.00
3254;BME280;1639;42.804;23.342;2023-05-25T09:27:22;72748.91;;;-148.52;100.00
3254;BME280;1639;42.804;23.342;2023-05-25T09:29:49;72755.13;;;-148.52;100.00
3254;BME280;1639;42.804;23.342;2023-05-25T09:32:16;72740.66;;;-148.52;100.00
3254;BME280;1639;42.804;23.342;2023-05-25T09:34:42;72730.31;;;-148.52;100.00
3254;BME280;1639;42.804;23.342;2023-05-25T09:37:13;72740.66;;;-148.52;100.00
3254;BME280;1639;42.804;23.342;2023-05-25T09:39:40;72732.38;;;-148.52;100.00
3254;BME280;1639;42.804;23.342;2023-05-25T09:42:05;72732.38;;;-148.52;100.00
3254;BME280;1639;42.804;23.342;2023-05-25T09:44:31;72740.66;;;-148.52;100.00
3254;BME280;1639;42.804;23.342;2023-05-25T09:46:56;72744.78;;;-148.52;100.00
3254;BME280;1639;42.804;23.342;2023-05-25T09:49:22;72755.13;;;-148.52;100.00
3254;BME280;1639;42.804;23.342;2023-05-25T09:51:48;72757.19;;;-148.52;100.00
3254;BME280;1639;42.804;23.342;2023-05-25T09:54:13;72753.06;;;-148.52;100.00
3254;BME280;1639;42.804;23.342;2023-05-25T09:56:40;72748.91;;;-148.52;100.00
3254;BME280;1639;42.804;23.342;2023-05-25T09:59:06;72748.91;;;-148.52;100.00
3254;BME280;1639;42.804;23.342;2023-05-25T10:01:32;72736.50;;;-148.52;100.00
3254;BME280;1639;42.804;23.342;2023-05-25T10:03:57;72740.66;;;-148.52;100.00
3254;BME280;1639;42.804;23.342;2023-05-25T10:06:24;72724.09;;;-148.52;100.00
3254;BME280;1639;42.804;23.342;2023-05-25T10:08:52;72717.91;;;-148.52;100.00
3254;BME280;1639;42.804;23.342;2023-05-25T10:11:21;72703.44;;;-148.52;100.00
3254;BME280;1639;42.804;23.342;2023-05-25T10:13:48;72691.00;;;-148.52;100.00
3254;BME280;1639;42.804;23.342;2023-05-25T10:16:16;72678.59;;;-148.52;100.00
3254;BME280;1639;42.804;23.342;2023-05-25T10:18:49;72655.84;;;-148.52;100.00
3254;BME280;1639;42.804;23.342;2023-05-25T10:21:17;72641.38;;;-148.52;100.00
3254;BME280;1639;42.804;23.342;2023-05-25T10:23:51;72616.56;;;-148.52;100.00
3254;BME280;1639;42.804;23.342;2023-05-25T10:26:20;72610.38;;;-148.52;100.00
3254;BME280;1639;42.804;23.342;2023-05-25T10:28:49;72587.63;;;-148.52;100.00
3254;BME280;1639;42.804;23.342;2023-05-25T10:31:17;72577.28;;;-148.52;100.00
3254;BME280;1639;42.804;23.342;2023-05-25T10:33:43;72550.38;;;-148.52;100.00
3254;BME280;1639;42.804;23.342;2023-05-25T10:36:09;72533.84;;;-148.52;100.00
3254;BME280;1639;42.804;23.342;2023-05-25T10:38:40;72509.03;;;-148.52;100.00
3254;BME280;1639;42.804;23.342;2023-05-25T10:41:09;72469.75;;;-148.52;100.00
3254;BME280;1639;42.804;23.342;2023-05-25T10:43:38;72449.06;;;-148.52;100.00
3254;BME280;1639;42.804;23.342;2023-05-25T10:46:05;72430.44;;;-148.52;100.00
3254;BME280;1639;42.804;23.342;2023-05-25T10:48:35;72418.03;;;-148.52;100.00
3254;BME280;1639;42.804;23.342;2023-05-25T10:51:01;72405.63;;;-148.52;100.00
3254;BME280;1639;42.804;23.342;2023-05-25T10:53:26;72418.03;;;-148.52;100.00
3254;BME280;1639;42.804;23.342;2023-05-25T10:58:19;72442.84;;;-148.52;100.00
3254;BME280;1639;42.804;23.342;2023-05-25T11:01:07;72424.25;;;-148.52;100.00
3254;BME280;1639;42.804;23.342;2023-05-25T11:03:52;72393.22;;;-148.52;100.00
3254;BME280;1639;42.804;23.342;2023-05-25T11:07:02;72378.75;;;-148.52;100.00
3254;BME280;1639;42.804;23.342;2023-05-25T11:09:25;72368.41;;;-148.52;100.00
3254;BME280;1639;42.804;23.342;2023-05-25T11:14:20;72335.31;;;-148.52;100.00
3254;BME280;1639;42.804;23.342;2023-05-25T11:17:11;72320.84;;;-148.52;100.00
3254;BME280;1639;42.804;23.342;2023-05-25T11:22:19;72287.75;;;-148.52;100.00
3254;BME280;1639;42.804;23.342;2023-05-25T11:24:52;72271.22;;;-148.52;100.00
3254;BME280;1639;42.804;23.342;2023-05-25T11:27:26;72256.75;;;-148.52;100.00
3254;BME280;1639;42.804;23.342;2023-05-25T11:29:53;72225.72;;;-148.52;100.00
3254;BME280;1639;42.804;23.342;2023-05-25T11:32:20;72205.06;;;-148.52;100.00
3254;BME280;1639;42.804;23.342;2023-05-25T11:34:47;72188.50;;;-148.52;100.00
3254;BME280;1639;42.804;23.342;2023-05-25T11:37:16;72171.97;;;-148.52;100.00
3254;BME280;1639;42.804;23.342;2023-05-25T11:39:51;72153.34;;;-148.52;100.00
3254;BME280;1639;42.804;23.342;2023-05-25T11:42:19;72143.03;;;-148.52;100.00
3254;BME280;1639;42.804;23.342;2023-05-25T11:44:45;72120.28;;;-148.52;100.00
3254;BME280;1639;42.804;23.342;2023-05-25T11:47:12;72107.88;;;-148.52;100.00
3254;BME280;1639;42.804;23.342;2023-05-25T11:49:42;72072.72;;;-148.52;100.00
3254;BME280;1639;42.804;23.342;2023-05-25T11:52:16;72068.59;;;-148.52;100.00
3254;BME280;1639;42.804;23.342;2023-05-25T11:54:42;72062.38;;;-148.52;100.00
3254;BME280;1639;42.804;23.342;2023-05-25T11:57:19;72047.91;;;-148.52;100.00
3254;BME280;1639;42.804;23.342;2023-05-25T11:59:58;72016.88;;;-148.52;100.00
3254;BME280;1639;42.804;23.342;2023-05-25T12:02:26;71985.88;;;-148.52;100.00
3254;BME280;1639;42.804;23.342;2023-05-25T12:04:56;71959.00;;;-148.52;100.00
3254;BME280;1639;42.804;23.342;2023-05-25T12:07:23;71954.84;;;-148.52;77.55
3254;BME280;1639;42.804;23.342;2023-05-25T12:09:49;71944.53;;;-148.52;75.94
3254;BME280;1639;42.804;23.342;2023-05-25T12:12:14;71905.22;;;-148.52;82.20
3254;BME280;1639;42.804;23.342;2023-05-25T12:14:49;71874.22;;;-148.52;77.32
3254;BME280;1639;42.804;23.342;2023-05-25T12:17:16;71861.81;;;-148.52;80.89
3254;BME280;1639;42.804;23.342;2023-05-25T12:19:42;71865.94;;;-148.52;79.50
3254;BME280;1639;42.804;23.342;2023-05-25T12:22:09;71872.16;;;-148.52;74.49
3254;BME280;1639;42.804;23.342;2023-05-25T12:24:34;71863.88;;;-148.52;74.06
3254;BME280;1639;42.804;23.342;2023-05-25T12:27:00;71841.13;;;-148.52;76.97
3254;BME280;1639;42.804;23.342;2023-05-25T12:29:27;71830.81;;;-148.52;77.20
3254;BME280;1639;42.804;23.342;2023-05-25T12:32:01;71801.84;;;-148.52;79.37
3254;BME280;1639;42.804;23.342;2023-05-25T12:34:28;71793.59;;;-148.52;78.27
3254;BME280;1639;42.804;23.342;2023-05-25T12:36:55;71789.44;;;-148.52;76.38
3254;BME280;1639;42.804;23.342;2023-05-25T12:42:01;71743.97;;;-148.52;73.51
3254;BME280;1639;42.804;23.342;2023-05-25T12:44:29;71727.41;;;-148.52;72.18
3254;BME280;1639;42.804;23.342;2023-05-25T12:47:15;71698.47;;;-148.52;68.02
3254;BME280;1639;42.804;23.342;2023-05-25T12:49:42;71690.19;;;-148.52;58.18
3254;BME280;1639;42.804;23.342;2023-05-25T12:52:09;71684.00;;;-148.52;59.22
3254;BME280;1639;42.804;23.342;2023-05-25T12:54:37;71659.19;;;-148.52;59.66
3254;BME280;1639;42.804;23.342;2023-05-25T12:57:04;71653.00;;;-148.52;55.33